Time;durP1;ratioP1;P1;durP2;ratioP2;P2;SDS_P1;SDS_P2;PMS_P1;PMS_P2;Temp;Humidity;BMP_temperature;BMP_pressure;BME280_temperature;BME280_humidity;BME280_pressure;Samples;Min_cycle;Max_cycle;Signal;HPM_P1;HPM_P2
2021/01/18 00:01:22;;;;;;;1.73;1.05;;;2.70;99.90;;;;;;4182066;28;20048;-87
2021/01/18 00:03:23;;;;;;;0.82;0.40;;;2.80;99.90;;;;;;4181286;28;20045;-87
2021/01/18 00:05:24;;;;;;;0.30;0.22;;;2.80;99.90;;;;;;4177407;28;20049;-87
2021/01/18 00:07:26;;;;;;;1.55;0.57;;;2.80;99.90;;;;;;4164735;28;20065;-88
2021/01/18 00:09:27;;;;;;;0.90;0.88;;;2.80;99.90;;;;;;4197914;28;20049;-87
2021/01/18 00:11:28;;;;;;;4.88;0.50;;;2.70;99.90;;;;;;4173120;28;20494;-89
2021/01/18 00:13:30;;;;;;;1.95;0.65;;;2.70;99.90;;;;;;4181975;28;20476;-89
2021/01/18 00:15:31;;;;;;;0.38;0.38;;;2.70;99.90;;;;;;4163621;28;20056;-88
2021/01/18 00:17:34;;;;;;;0.45;0.45;;;2.60;99.90;;;;;;4207451;28;20094;-88
2021/01/18 00:19:35;;;;;;;0.43;0.40;;;2.60;99.90;;;;;;4197455;28;20044;-87
2021/01/18 00:21:45;;;;;;;1.55;0.75;;;2.60;99.90;;;;;;4181120;28;20056;-87
2021/01/18 00:23:46;;;;;;;4.15;1.65;;;2.50;99.90;;;;;;4190290;28;20052;-88
2021/01/18 00:25:48;;;;;;;0.40;0.40;;;2.50;99.90;;;;;;4151112;28;20049;-87
2021/01/18 00:27:49;;;;;;;1.33;1.23;;;2.40;99.90;;;;;;4175943;28;20049;-88
2021/01/18 00:29:51;;;;;;;0.50;0.50;;;2.40;99.90;;;;;;4197440;28;20139;-88
2021/01/18 00:31:52;;;;;;;0.40;0.40;;;2.40;99.90;;;;;;4197361;28;20138;-87
2021/01/18 00:33:54;;;;;;;0.35;0.30;;;2.40;99.90;;;;;;4193409;28;20060;-87
2021/01/18 00:35:55;;;;;;;0.55;0.43;;;2.30;99.90;;;;;;4164234;28;20049;-88
2021/01/18 00:37:57;;;;;;;0.68;0.68;;;2.40;99.90;;;;;;4197592;28;20107;-89
2021/01/18 00:39:58;;;;;;;1.40;0.60;;;2.40;99.90;;;;;;4164993;28;20095;-87
2021/01/18 00:42:00;;;;;;;0.40;0.40;;;2.40;99.90;;;;;;4169526;28;20073;-89
2021/01/18 00:44:01;;;;;;;0.65;0.65;;;2.40;99.90;;;;;;4181881;28;20135;-87
2021/01/18 00:46:02;;;;;;;0.52;0.52;;;2.40;99.90;;;;;;4177921;28;20045;-89
2021/01/18 00:48:04;;;;;;;0.93;0.68;;;2.40;99.90;;;;;;4179805;28;20049;-88
2021/01/18 00:50:06;;;;;;;0.88;0.45;;;2.50;99.90;;;;;;4177746;28;20049;-88
2021/01/18 00:52:10;;;;;;;0.35;0.35;;;2.50;99.90;;;;;;4180705;28;20053;-87
2021/01/18 00:54:12;;;;;;;0.20;0.20;;;2.40;99.90;;;;;;4171518;28;20532;-87
2021/01/18 00:56:13;;;;;;;0.47;0.45;;;2.40;99.90;;;;;;4186547;28;20067;-88
2021/01/18 00:58:14;;;;;;;1.33;0.52;;;2.40;99.90;;;;;;4180952;28;20047;-87
2021/01/18 01:00:20;;;;;;;0.40;0.40;;;2.40;99.90;;;;;;4174899;28;20053;-87
2021/01/18 01:02:22;;;;;;;1.45;0.88;;;2.40;99.90;;;;;;4180124;28;20045;-87
2021/01/18 01:04:24;;;;;;;1.13;1.13;;;2.50;99.90;;;;;;4181203;28;20555;-88
2021/01/18 01:06:25;;;;;;;0.40;0.40;;;2.50;99.90;;;;;;4180576;28;20049;-87
2021/01/18 01:08:26;;;;;;;1.10;0.88;;;2.40;99.90;;;;;;4163738;28;20049;-87
2021/01/18 01:10:32;;;;;;;1.20;0.68;;;2.50;99.90;;;;;;4164141;28;20053;-88
2021/01/18 01:12:33;;;;;;;3.47;2.28;;;2.50;99.90;;;;;;4148021;28;20141;-87
2021/01/18 01:14:35;;;;;;;0.28;0.28;;;2.40;99.90;;;;;;4172945;28;20076;-87
2021/01/18 01:16:36;;;;;;;0.47;0.47;;;2.40;99.90;;;;;;4180529;28;20053;-87
2021/01/18 01:18:37;;;;;;;0.73;0.73;;;2.40;99.90;;;;;;4168762;28;20045;-87
2021/01/18 01:20:39;;;;;;;0.40;0.40;;;2.30;99.90;;;;;;4173949;28;20136;-88
2021/01/18 01:22:40;;;;;;;0.80;0.68;;;2.40;99.90;;;;;;4180504;28;20483;-88
2021/01/18 01:24:41;;;;;;;0.65;0.45;;;2.40;99.90;;;;;;4209555;28;20044;-88
2021/01/18 01:26:42;;;;;;;0.85;0.85;;;2.50;99.90;;;;;;4196212;28;20041;-89
2021/01/18 01:28:45;;;;;;;0.30;0.30;;;2.50;99.90;;;;;;4180152;28;20071;-89
2021/01/18 01:30:46;;;;;;;0.20;0.20;;;2.40;99.90;;;;;;4180746;28;20140;-87
2021/01/18 01:32:48;;;;;;;0.63;0.30;;;2.30;99.90;;;;;;4173862;28;20115;-87
2021/01/18 01:34:50;;;;;;;0.88;0.57;;;2.30;99.90;;;;;;4179764;28;20044;-88
2021/01/18 01:36:51;;;;;;;1.45;0.57;;;2.30;99.90;;;;;;4175836;28;20067;-88
2021/01/18 01:38:52;;;;;;;0.82;0.82;;;2.30;99.90;;;;;;4197119;28;20476;-87
2021/01/18 01:40:53;;;;;;;1.55;0.60;;;2.30;99.90;;;;;;4180548;28;20133;-87
2021/01/18 01:42:56;;;;;;;0.20;0.17;;;2.30;99.90;;;;;;4192702;28;20515;-87
2021/01/18 01:44:57;;;;;;;5.22;1.35;;;2.30;99.90;;;;;;4208668;28;20048;-87
2021/01/18 01:46:59;;;;;;;2.78;0.73;;;2.20;99.90;;;;;;4184412;28;20040;-87
2021/01/18 01:49:00;;;;;;;0.75;0.50;;;2.20;99.90;;;;;;4196727;28;20060;-87
2021/01/18 01:51:02;;;;;;;2.83;0.95;;;2.20;99.90;;;;;;4180082;28;20131;-87
2021/01/18 01:53:20;;;;;;;1.00;0.85;;;2.30;99.90;;;;;;4166738;28;20047;-87
2021/01/18 01:55:25;;;;;;;0.75;0.50;;;2.20;99.90;;;;;;4196618;28;20075;-88
2021/01/18 01:57:27;;;;;;;0.35;0.35;;;2.30;99.90;;;;;;4184001;28;20521;-87
2021/01/18 01:59:28;;;;;;;3.55;1.13;;;2.30;99.90;;;;;;4187793;28;20055;-88
2021/01/18 02:01:29;;;;;;;0.75;0.30;;;2.30;99.90;;;;;;4180480;28;20052;-88
2021/01/18 02:03:33;;;;;;;0.43;0.43;;;2.30;99.90;;;;;;4163212;28;20111;-89
2021/01/18 02:05:34;;;;;;;4.38;0.90;;;2.30;99.90;;;;;;4195656;28;20513;-88
2021/01/18 02:07:35;;;;;;;0.90;0.68;;;2.30;99.90;;;;;;4163711;28;20060;-87
2021/01/18 02:09:37;;;;;;;0.30;0.30;;;2.30;99.90;;;;;;4184534;28;20055;-87
2021/01/18 02:11:38;;;;;;;1.92;1.30;;;2.20;99.90;;;;;;4168878;28;20136;-87
2021/01/18 02:14:02;;;;;;;0.85;0.85;;;2.20;99.90;;;;;;4164616;28;20053;-88
2021/01/18 02:16:04;;;;;;;0.82;0.82;;;2.20;99.90;;;;;;4180068;28;20131;-87
2021/01/18 02:18:28;;;;;;;0.85;0.73;;;2.20;99.90;;;;;;4193211;28;20505;-88
2021/01/18 02:20:51;;;;;;;0.57;0.40;;;2.10;99.90;;;;;;4180433;28;20063;-88
2021/01/18 02:23:02;;;;;;;0.68;0.68;;;2.10;99.90;;;;;;4183129;28;20045;-88
2021/01/18 02:25:28;;;;;;;2.97;1.92;;;2.10;99.90;;;;;;4193534;28;20053;-88
2021/01/18 02:27:48;;;;;;;;;;;2.10;99.90;;;;;;4155969;28;20053;-87
2021/01/18 02:29:58;;;;;;;0.57;0.57;;;2.10;99.90;;;;;;4187959;28;19935;-86
2021/01/18 02:32:07;;;;;;;1.95;0.77;;;2.10;99.90;;;;;;4183432;28;20071;-88
2021/01/18 02:34:31;;;;;;;1.52;0.95;;;2.10;99.90;;;;;;4196770;28;20045;-88
2021/01/18 02:36:38;;;;;;;0.17;0.17;;;2.20;99.90;;;;;;4187802;28;20138;-88
2021/01/18 02:38:50;;;;;;;2.65;2.17;;;2.20;99.90;;;;;;4168300;28;20057;-88
2021/01/18 02:41:00;;;;;;;4.13;1.55;;;2.20;99.90;;;;;;4178897;28;20045;-87
2021/01/18 02:43:03;;;;;;;2.75;0.20;;;2.20;99.90;;;;;;4180537;28;20053;-87
2021/01/18 02:45:05;;;;;;;0.47;0.28;;;2.30;99.90;;;;;;4171443;28;20037;-88
2021/01/18 02:47:07;;;;;;;0.40;0.40;;;2.30;99.90;;;;;;4168262;28;20080;-88
2021/01/18 02:49:08;;;;;;;0.60;0.60;;;2.30;99.90;;;;;;4179771;28;20084;-88
2021/01/18 02:51:11;;;;;;;0.38;0.38;;;2.30;99.90;;;;;;4195281;28;20056;-88
2021/01/18 02:53:12;;;;;;;0.82;0.47;;;2.30;99.90;;;;;;4159465;28;20527;-87
2021/01/18 02:55:16;;;;;;;0.20;0.20;;;2.30;99.90;;;;;;4196564;28;20048;-88
2021/01/18 02:57:20;;;;;;;0.65;0.57;;;2.30;99.90;;;;;;4179497;28;20049;-88
2021/01/18 02:59:21;;;;;;;0.47;0.30;;;2.30;99.90;;;;;;4192092;28;20104;-86
2021/01/18 03:01:50;;;;;;;0.30;0.30;;;2.30;99.90;;;;;;4147547;28;20058;-89
2021/01/18 03:04:02;;;;;;;0.75;0.65;;;2.40;99.90;;;;;;4200742;28;20060;-87
2021/01/18 03:06:07;;;;;;;0.52;0.45;;;2.40;99.90;;;;;;4171078;28;20494;-89
2021/01/18 03:08:21;;;;;;;0.57;0.57;;;2.50;99.90;;;;;;4185064;28;20729;-88
2021/01/18 03:10:26;;;;;;;0.40;0.40;;;2.50;99.90;;;;;;4183156;28;20049;-88
2021/01/18 03:12:29;;;;;;;0.32;0.25;;;2.60;99.90;;;;;;4196992;28;20086;-87
2021/01/18 03:14:41;;;;;;;0.50;0.50;;;2.60;99.90;;;;;;4181862;28;20052;-88
2021/01/18 03:16:45;;;;;;;0.50;0.50;;;2.60;99.90;;;;;;4182699;28;20136;-87
2021/01/18 03:18:48;;;;;;;0.45;0.45;;;2.50;99.90;;;;;;4178229;28;20144;-87
2021/01/18 03:20:49;;;;;;;2.42;0.50;;;2.60;99.90;;;;;;4181879;28;20063;-87
2021/01/18 03:22:50;;;;;;;0.70;0.68;;;2.60;99.90;;;;;;4165112;28;20056;-87
2021/01/18 03:24:52;;;;;;;0.45;0.40;;;2.60;99.90;;;;;;4181704;28;20049;-87
2021/01/18 03:26:53;;;;;;;0.57;0.30;;;2.60;99.90;;;;;;4174278;28;20049;-87
2021/01/18 03:28:55;;;;;;;0.70;0.55;;;2.60;99.90;;;;;;4166323;28;20121;-87
2021/01/18 03:30:56;;;;;;;4.43;1.27;;;2.70;99.90;;;;;;4182394;28;20171;-88
2021/01/18 03:32:57;;;;;;;1.10;1.00;;;2.70;99.90;;;;;;4177866;28;20128;-88
2021/01/18 03:34:59;;;;;;;1.60;0.90;;;2.70;99.90;;;;;;4180764;28;20051;-87
2021/01/18 03:37:00;;;;;;;3.75;1.92;;;2.70;99.90;;;;;;4182187;28;20060;-87
2021/01/18 03:39:01;;;;;;;0.20;0.20;;;2.70;99.90;;;;;;4198714;28;20111;-87
2021/01/18 03:41:03;;;;;;;1.15;0.55;;;2.70;99.90;;;;;;4179354;28;20057;-87
2021/01/18 03:43:06;;;;;;;1.95;0.55;;;2.70;99.90;;;;;;4195696;28;20048;-87
2021/01/18 03:45:08;;;;;;;0.10;0.10;;;2.70;99.90;;;;;;4161939;28;20057;-87
2021/01/18 03:47:09;;;;;;;0.20;0.20;;;2.70;99.90;;;;;;4180137;28;20041;-88
2021/01/18 03:49:11;;;;;;;0.40;0.40;;;2.80;99.90;;;;;;4162774;28;20599;-88
2021/01/18 03:51:12;;;;;;;0.20;0.20;;;2.80;99.90;;;;;;4175470;28;20537;-87
2021/01/18 03:53:14;;;;;;;0.20;0.20;;;2.80;99.90;;;;;;4164248;28;20091;-87
2021/01/18 03:55:15;;;;;;;0.43;0.40;;;2.80;99.90;;;;;;4180219;28;20053;-87
2021/01/18 03:57:16;;;;;;;0.10;0.10;;;2.80;99.90;;;;;;4190624;28;20417;-87
2021/01/18 03:59:18;;;;;;;0.35;0.30;;;2.80;99.90;;;;;;4169950;28;20059;-87
2021/01/18 04:01:20;;;;;;;1.23;1.08;;;2.80;99.90;;;;;;4166933;28;20528;-87
2021/01/18 04:03:21;;;;;;;1.10;1.00;;;2.80;99.90;;;;;;4175948;28;20041;-87
2021/01/18 04:05:23;;;;;;;0.20;0.20;;;2.80;99.90;;;;;;4179282;28;20140;-87
2021/01/18 04:07:24;;;;;;;0.20;0.20;;;2.80;99.90;;;;;;4181827;28;20059;-87
2021/01/18 04:09:25;;;;;;;1.38;1.05;;;2.90;99.90;;;;;;4173464;28;20053;-87
2021/01/18 04:11:27;;;;;;;0.57;0.38;;;2.80;99.90;;;;;;4172345;28;20133;-86
2021/01/18 04:13:28;;;;;;;0.68;0.68;;;2.80;99.90;;;;;;4148959;28;20054;-87
2021/01/18 04:15:29;;;;;;;1.88;0.98;;;2.80;99.90;;;;;;4173802;28;20497;-87
2021/01/18 04:17:31;;;;;;;0.32;0.30;;;2.80;99.90;;;;;;4181277;28;20052;-88
2021/01/18 04:19:33;;;;;;;0.40;0.30;;;2.70;99.90;;;;;;4197109;28;20528;-87
2021/01/18 04:21:37;;;;;;;1.35;0.55;;;2.80;99.90;;;;;;4178783;28;20045;-86
2021/01/18 04:23:39;;;;;;;1.75;0.85;;;2.80;99.90;;;;;;4197612;28;20419;-87
2021/01/18 04:25:40;;;;;;;0.20;0.20;;;2.80;99.90;;;;;;4165253;28;20052;-87
2021/01/18 04:27:51;;;;;;;0.98;0.35;;;2.80;99.90;;;;;;4185545;28;20053;-87
2021/01/18 04:29:53;;;;;;;0.50;0.32;;;2.80;99.90;;;;;;4168569;28;20053;-88
2021/01/18 04:31:54;;;;;;;0.20;0.20;;;2.80;99.90;;;;;;4178017;28;20079;-87
2021/01/18 04:33:56;;;;;;;0.25;0.20;;;2.80;99.90;;;;;;4164721;28;20053;-88
2021/01/18 04:35:57;;;;;;;0.25;0.25;;;2.80;99.90;;;;;;4174893;28;20049;-88
2021/01/18 04:37:59;;;;;;;1.02;0.40;;;2.80;99.90;;;;;;4164350;28;20132;-87
2021/01/18 04:40:00;;;;;;;0.40;0.40;;;2.90;99.90;;;;;;4164865;28;20049;-87
2021/01/18 04:42:02;;;;;;;0.40;0.40;;;3.00;99.90;;;;;;4171233;28;20053;-87
2021/01/18 04:44:10;;;;;;;0.45;0.30;;;3.00;99.90;;;;;;4164841;28;20137;-87
2021/01/18 04:46:11;;;;;;;1.83;1.10;;;3.00;99.90;;;;;;4164740;28;20604;-87
2021/01/18 04:48:13;;;;;;;0.40;0.40;;;3.00;99.90;;;;;;4174401;28;20071;-87
2021/01/18 04:50:15;;;;;;;0.70;0.68;;;3.00;99.90;;;;;;4180421;28;20048;-88
2021/01/18 04:52:17;;;;;;;5.18;2.28;;;3.00;99.90;;;;;;4181434;28;20053;-87
2021/01/18 04:54:20;;;;;;;1.45;0.75;;;3.00;99.90;;;;;;4181994;28;20136;-87
2021/01/18 04:56:35;;;;;;;1.10;0.85;;;2.90;99.90;;;;;;4188380;28;20052;-87
2021/01/18 04:58:37;;;;;;;0.47;0.40;;;3.00;99.90;;;;;;4180562;28;20132;-87
2021/01/18 05:00:48;;;;;;;0.20;0.20;;;3.00;99.90;;;;;;4180830;28;20499;-87
2021/01/18 05:02:52;;;;;;;0.80;0.68;;;3.00;99.90;;;;;;4208218;28;20063;-87
2021/01/18 05:04:53;;;;;;;0.20;0.20;;;3.00;99.90;;;;;;4196944;28;20098;-87
2021/01/18 05:07:00;;;;;;;0.50;0.50;;;3.00;99.90;;;;;;4164772;28;20148;-87
2021/01/18 05:09:27;;;;;;;0.57;0.43;;;2.90;99.90;;;;;;4158094;28;20045;-87
2021/01/18 05:11:29;;;;;;;0.50;0.50;;;3.00;99.90;;;;;;4188535;28;20044;-87
2021/01/18 05:13:30;;;;;;;0.20;0.20;;;2.90;99.90;;;;;;4180207;28;20052;-87
2021/01/18 05:15:31;;;;;;;0.30;0.30;;;3.00;99.90;;;;;;4178971;28;20053;-87
2021/01/18 05:17:43;;;;;;;0.43;0.30;;;3.00;99.90;;;;;;4175428;28;20053;-87
2021/01/18 05:19:44;;;;;;;0.70;0.63;;;3.00;99.90;;;;;;4166600;28;20510;-87
2021/01/18 05:21:46;;;;;;;0.40;0.40;;;3.00;99.90;;;;;;4179157;28;20041;-87
2021/01/18 05:23:48;;;;;;;0.20;0.20;;;2.90;99.90;;;;;;4179671;28;20052;-89
2021/01/18 05:25:49;;;;;;;0.47;0.47;;;3.00;99.90;;;;;;4164202;28;20067;-87
2021/01/18 05:28:06;;;;;;;1.13;0.82;;;3.00;99.90;;;;;;4179596;28;20069;-87
2021/01/18 05:30:07;;;;;;;0.45;0.45;;;3.00;99.90;;;;;;4171310;28;20056;-87
2021/01/18 05:32:22;;;;;;;0.77;0.77;;;3.00;99.90;;;;;;4178291;28;20045;-87
2021/01/18 05:34:27;;;;;;;1.65;0.57;;;3.00;99.90;;;;;;4164802;28;20049;-89
2021/01/18 05:36:48;;;;;;;0.40;0.40;;;3.00;99.90;;;;;;4178063;28;20045;-87
2021/01/18 05:38:49;;;;;;;0.45;0.45;;;3.00;99.90;;;;;;4179997;28;20053;-87
2021/01/18 05:40:51;;;;;;;0.60;0.52;;;3.00;99.90;;;;;;4166807;28;20063;-87
2021/01/18 05:42:52;;;;;;;0.45;0.45;;;3.00;99.90;;;;;;4180308;28;20099;-88
2021/01/18 05:44:53;;;;;;;1.13;1.13;;;3.00;99.90;;;;;;4163256;28;20533;-88
2021/01/18 05:47:00;;;;;;;1.00;0.57;;;3.00;99.90;;;;;;4179394;28;20052;-88
2021/01/18 05:49:11;;;;;;;0.80;0.77;;;3.10;99.90;;;;;;4176945;28;20040;-88
2021/01/18 05:51:12;;;;;;;0.55;0.55;;;3.00;99.90;;;;;;4192344;28;20230;-88
2021/01/18 05:53:29;;;;;;;0.75;0.50;;;3.00;99.90;;;;;;4179851;28;20540;-88
2021/01/18 05:55:35;;;;;;;0.47;0.28;;;3.10;99.90;;;;;;4180110;28;20052;-88
2021/01/18 05:57:36;;;;;;;1.65;0.50;;;3.00;99.90;;;;;;4180963;28;20460;-87
2021/01/18 05:59:37;;;;;;;0.50;0.35;;;3.00;99.90;;;;;;4188155;28;20044;-88
2021/01/18 06:01:42;;;;;;;0.52;0.50;;;3.00;99.90;;;;;;4196368;28;20135;-88
2021/01/18 06:03:43;;;;;;;;;;;3.00;99.90;;;;;;4168988;28;20061;-88
2021/01/18 06:05:47;;;;;;;1.05;0.52;;;3.00;99.90;;;;;;4202521;28;20399;-88
2021/01/18 06:07:50;;;;;;;0.35;0.20;;;3.00;99.90;;;;;;4182655;28;20048;-87
2021/01/18 06:09:52;;;;;;;0.63;0.35;;;2.90;99.90;;;;;;4148143;28;20146;-88
2021/01/18 06:11:53;;;;;;;0.65;0.57;;;3.00;99.90;;;;;;4179834;28;20045;-87
2021/01/18 06:14:02;;;;;;;2.30;1.45;;;2.90;99.90;;;;;;4195401;28;20068;-88
2021/01/18 06:16:03;;;;;;;0.50;0.40;;;2.90;99.90;;;;;;4167541;28;20041;-88
2021/01/18 06:18:04;;;;;;;0.50;0.50;;;2.90;99.90;;;;;;4191939;28;20068;-88
2021/01/18 06:20:06;;;;;;;2.33;0.70;;;2.90;99.90;;;;;;4180351;28;20049;-88
2021/01/18 06:22:07;;;;;;;0.85;0.65;;;2.90;99.90;;;;;;4166796;28;20057;-88
2021/01/18 06:24:19;;;;;;;1.60;1.40;;;3.00;99.90;;;;;;4172280;28;20136;-87
2021/01/18 06:26:21;;;;;;;1.20;1.10;;;2.90;99.90;;;;;;4162619;28;20049;-88
2021/01/18 06:28:37;;;;;;;1.05;0.82;;;2.90;99.90;;;;;;4163718;28;20073;-86
2021/01/18 06:30:39;;;;;;;0.75;0.38;;;2.90;99.90;;;;;;4173088;28;20049;-91
2021/01/18 06:32:40;;;;;;;1.13;0.52;;;3.00;99.90;;;;;;4192273;28;20052;-87
2021/01/18 06:34:41;;;;;;;0.50;0.45;;;2.90;99.90;;;;;;4164829;28;20053;-89
2021/01/18 06:36:42;;;;;;;0.85;0.85;;;3.00;99.90;;;;;;4165200;28;20046;-88
2021/01/18 06:38:50;;;;;;;0.55;0.55;;;3.00;99.90;;;;;;4179446;28;20065;-89
2021/01/18 06:40:56;;;;;;;1.10;0.55;;;3.00;99.90;;;;;;4166529;28;20045;-88
2021/01/18 06:42:58;;;;;;;0.77;0.77;;;2.90;99.90;;;;;;4194826;28;20068;-88
2021/01/18 06:44:59;;;;;;;0.35;0.35;;;2.90;99.90;;;;;;4182093;28;20053;-88
2021/01/18 06:47:01;;;;;;;0.60;0.55;;;3.00;99.90;;;;;;4182462;28;20104;-88
2021/01/18 06:49:03;;;;;;;0.98;0.93;;;3.00;99.90;;;;;;4166652;28;20153;-88
2021/01/18 06:51:04;;;;;;;0.43;0.40;;;3.00;99.90;;;;;;4176777;28;20128;-88
2021/01/18 06:53:24;;;;;;;0.30;0.30;;;3.00;99.90;;;;;;4177830;28;20051;-88
2021/01/18 06:55:26;;;;;;;0.82;0.82;;;3.00;99.90;;;;;;4182843;28;20128;-89
2021/01/18 06:57:46;;;;;;;0.35;0.28;;;3.00;99.90;;;;;;4150196;28;20466;-88
2021/01/18 06:59:50;;;;;;;0.50;0.50;;;3.00;99.90;;;;;;4192044;28;20045;-88
2021/01/18 07:02:15;;;;;;;3.50;0.73;;;3.00;99.90;;;;;;4168886;28;20140;-90
2021/01/18 07:04:17;;;;;;;0.50;0.50;;;3.00;99.90;;;;;;4167575;28;20049;-88
2021/01/18 07:06:44;;;;;;;0.30;0.30;;;3.00;99.90;;;;;;4180133;28;20128;-90
2021/01/18 07:08:46;;;;;;;1.98;0.95;;;3.00;99.90;;;;;;4190528;28;20076;-86
2021/01/18 07:10:49;;;;;;;0.90;0.70;;;3.00;99.90;;;;;;4196850;28;20053;-86
2021/01/18 07:12:50;;;;;;;0.55;0.35;;;3.00;99.90;;;;;;4182197;28;20567;-85
2021/01/18 07:15:08;;;;;;;1.65;0.50;;;3.00;99.90;;;;;;4194141;28;20045;-86
2021/01/18 07:17:11;;;;;;;0.73;0.73;;;3.00;99.90;;;;;;4186433;28;20127;-87
2021/01/18 07:19:12;;;;;;;0.20;0.20;;;3.00;99.90;;;;;;4184217;28;20067;-86
2021/01/18 07:21:16;;;;;;;0.30;0.30;;;3.00;99.90;;;;;;4187163;28;20076;-86
2021/01/18 07:23:28;;;;;;;0.30;0.25;;;3.00;99.90;;;;;;4201224;28;20048;-86
2021/01/18 07:25:34;;;;;;;0.43;0.43;;;3.00;99.90;;;;;;4182147;28;20520;-87
2021/01/18 07:27:40;;;;;;;0.57;0.40;;;2.90;99.90;;;;;;4194453;28;20051;-86
2021/01/18 07:29:41;;;;;;;2.13;0.50;;;3.00;99.90;;;;;;4192330;28;20049;-86
2021/01/18 07:31:48;;;;;;;1.52;1.40;;;3.00;99.90;;;;;;4198056;28;20040;-83
2021/01/18 07:33:49;;;;;;;0.20;0.20;;;3.00;99.90;;;;;;4170777;28;20485;-85
2021/01/18 07:35:51;;;;;;;0.30;0.30;;;3.00;99.90;;;;;;4203331;28;20044;-84
2021/01/18 07:38:18;;;;;;;0.70;0.35;;;3.00;99.90;;;;;;4166982;28;20049;-86
2021/01/18 07:40:19;;;;;;;0.10;0.10;;;3.00;99.90;;;;;;4197833;28;20049;-85
2021/01/18 07:42:32;;;;;;;0.60;0.57;;;3.00;99.90;;;;;;4188133;28;20059;-86
2021/01/18 07:44:35;;;;;;;0.68;0.40;;;3.00;99.90;;;;;;4187644;28;20047;-85
2021/01/18 07:46:37;;;;;;;1.20;0.30;;;3.00;99.90;;;;;;4182740;28;20133;-84
2021/01/18 07:48:38;;;;;;;0.98;0.25;;;3.00;99.90;;;;;;4187376;28;20061;-85
2021/01/18 07:50:41;;;;;;;0.70;0.50;;;3.00;99.90;;;;;;4202253;28;20055;-85
2021/01/18 07:52:42;;;;;;;3.25;0.73;;;3.10;99.90;;;;;;4198272;28;20052;-85
2021/01/18 07:54:45;;;;;;;0.77;0.77;;;3.10;99.90;;;;;;4191479;28;20045;-84
2021/01/18 07:56:46;;;;;;;3.03;0.90;;;3.10;99.90;;;;;;4194310;28;20051;-85
2021/01/18 07:59:01;;;;;;;0.60;0.60;;;3.10;99.90;;;;;;4181999;28;20059;-87
2021/01/18 08:01:06;;;;;;;;;;;3.10;99.90;;;;;;4183267;28;20045;-81
2021/01/18 08:03:08;;;;;;;0.40;0.40;;;3.20;99.90;;;;;;4219019;28;19920;-85
2021/01/18 08:05:32;;;;;;;0.77;0.52;;;3.20;99.90;;;;;;4184753;28;20045;-86
2021/01/18 08:08:06;;;;;;;2.88;1.30;;;3.20;99.90;;;;;;4198229;28;20055;-85
2021/01/18 08:10:08;;;;;;;0.52;0.52;;;3.20;99.90;;;;;;4164580;28;20148;-86
2021/01/18 08:12:31;;;;;;;0.47;0.40;;;3.20;99.90;;;;;;4202336;28;20149;-85
2021/01/18 08:14:32;;;;;;;0.50;0.50;;;3.20;99.90;;;;;;4183912;28;20497;-85
2021/01/18 08:16:36;;;;;;;0.80;0.40;;;3.30;99.90;;;;;;4196908;28;20059;-86
2021/01/18 08:19:09;;;;;;;1.58;0.70;;;3.30;99.90;;;;;;4187599;28;20053;-87
2021/01/18 08:21:32;;;;;;;0.90;0.40;;;3.30;99.90;;;;;;4192466;28;20044;-88
2021/01/18 08:23:43;;;;;;;0.73;0.52;;;3.30;99.90;;;;;;4191301;28;20395;-86
2021/01/18 08:25:44;;;;;;;2.35;1.48;;;3.30;99.90;;;;;;4195413;28;20524;-87
2021/01/18 08:28:00;;;;;;;0.20;0.20;;;3.40;99.90;;;;;;4208585;28;20044;-86
2021/01/18 08:30:21;;;;;;;0.43;0.43;;;3.30;99.90;;;;;;4186227;28;20052;-87
2021/01/18 08:32:30;;;;;;;1.50;0.30;;;3.40;99.90;;;;;;4184702;28;20479;-84
2021/01/18 08:34:34;;;;;;;0.43;0.43;;;3.40;99.90;;;;;;4182019;28;20057;-84
2021/01/18 08:36:36;;;;;;;0.57;0.23;;;3.40;99.90;;;;;;4192527;28;20420;-84
2021/01/18 08:38:37;;;;;;;0.65;0.63;;;3.40;99.90;;;;;;4174798;28;20049;-86
2021/01/18 08:40:38;;;;;;;0.28;0.28;;;3.40;99.90;;;;;;4196942;28;20055;-84
2021/01/18 08:42:40;;;;;;;0.10;0.10;;;3.40;99.90;;;;;;4193802;28;20077;-83
2021/01/18 08:44:41;;;;;;;0.40;0.40;;;3.40;99.90;;;;;;4191116;28;20056;-87
2021/01/18 08:46:43;;;;;;;0.28;0.20;;;3.50;99.90;;;;;;4191379;28;20382;-82
2021/01/18 08:48:44;;;;;;;0.70;0.60;;;3.50;99.90;;;;;;4193992;28;20053;-86
2021/01/18 08:50:47;;;;;;;0.40;0.22;;;3.50;99.90;;;;;;4174988;28;20138;-85
2021/01/18 08:52:56;;;;;;;0.28;0.28;;;3.50;99.90;;;;;;4195998;28;20048;-87
2021/01/18 08:54:57;;;;;;;0.30;0.30;;;3.50;99.90;;;;;;4193125;28;20049;-87
2021/01/18 08:57:17;;;;;;;0.63;0.38;;;3.50;99.90;;;;;;4193824;28;20052;-87
2021/01/18 08:59:18;;;;;;;0.25;0.22;;;3.50;99.90;;;;;;4196668;28;20044;-87
2021/01/18 09:01:26;;;;;;;1.42;0.20;;;3.50;99.90;;;;;;4197807;28;20134;-86
2021/01/18 09:03:28;;;;;;;0.55;0.50;;;3.50;99.90;;;;;;4180070;28;20560;-85
2021/01/18 09:05:29;;;;;;;1.73;1.25;;;3.50;99.90;;;;;;4195646;28;20045;-89
2021/01/18 09:07:30;;;;;;;0.85;0.65;;;3.60;99.90;;;;;;4197824;28;20065;-87
2021/01/18 09:09:32;;;;;;;0.73;0.63;;;3.60;99.90;;;;;;4196090;28;20048;-87
2021/01/18 09:11:34;;;;;;;0.30;0.30;;;3.60;99.90;;;;;;4196190;28;20040;-85
2021/01/18 09:13:36;;;;;;;0.43;0.43;;;3.60;99.90;;;;;;4197630;28;20055;-88
2021/01/18 09:15:38;;;;;;;0.65;0.60;;;3.70;99.90;;;;;;4188687;28;20056;-87
2021/01/18 09:17:41;;;;;;;0.55;0.55;;;3.60;99.90;;;;;;4206444;28;20056;-87
2021/01/18 09:19:51;;;;;;;1.08;1.08;;;3.70;99.90;;;;;;4193576;28;20082;-85
2021/01/18 09:21:52;;;;;;;0.80;0.75;;;3.70;99.90;;;;;;4197879;28;20052;-87
2021/01/18 09:23:53;;;;;;;0.20;0.20;;;3.80;99.90;;;;;;4162209;28;20045;-90
2021/01/18 09:26:07;;;;;;;0.20;0.20;;;3.80;99.90;;;;;;4195606;28;20041;-88
2021/01/18 09:28:13;;;;;;;0.20;0.20;;;3.80;99.90;;;;;;4200746;28;20055;-88
2021/01/18 09:30:17;;;;;;;;;;;3.90;99.90;;;;;;4197723;28;20055;-82
2021/01/18 09:32:18;;;;;;;0.65;0.40;;;3.90;99.90;;;;;;4199854;28;19988;-89
2021/01/18 09:34:20;;;;;;;1.75;0.50;;;3.90;99.90;;;;;;4197397;28;20091;-87
2021/01/18 09:36:24;;;;;;;1.55;0.65;;;3.80;99.90;;;;;;4194804;28;20452;-88
2021/01/18 09:38:25;;;;;;;0.90;0.85;;;3.80;99.90;;;;;;4195547;28;20049;-87
2021/01/18 09:40:27;;;;;;;3.42;0.80;;;3.80;99.90;;;;;;4197694;28;20048;-87
2021/01/18 09:42:28;;;;;;;0.38;0.35;;;3.90;99.90;;;;;;4212146;28;20572;-88
2021/01/18 09:44:29;;;;;;;0.98;0.93;;;3.80;99.90;;;;;;4195658;28;20041;-89
2021/01/18 09:46:31;;;;;;;1.10;0.82;;;3.90;99.90;;;;;;4196251;28;20074;-88
2021/01/18 09:48:32;;;;;;;1.67;1.35;;;3.90;99.90;;;;;;4211479;28;20103;-89
2021/01/18 09:50:35;;;;;;;2.38;0.63;;;3.90;99.90;;;;;;4210768;28;20078;-85
2021/01/18 09:52:40;;;;;;;1.25;0.40;;;3.90;99.90;;;;;;4196566;28;20119;-88
2021/01/18 09:54:41;;;;;;;;;;;4.00;99.90;;;;;;4194943;28;20058;-87
2021/01/18 09:56:42;;;;;;;0.50;0.50;;;4.00;99.90;;;;;;4194851;28;19994;-87
2021/01/18 09:58:58;;;;;;;0.38;0.38;;;4.00;99.90;;;;;;4178785;28;20049;-88
2021/01/18 10:01:00;;;;;;;0.50;0.50;;;4.00;99.90;;;;;;4192908;28;20053;-87
2021/01/18 10:03:02;;;;;;;2.10;0.95;;;4.00;99.90;;;;;;4195724;28;20041;-89
2021/01/18 10:05:03;;;;;;;1.23;1.17;;;4.10;99.90;;;;;;4176226;28;20045;-87
2021/01/18 10:07:06;;;;;;;0.52;0.52;;;4.10;99.90;;;;;;4193868;28;20084;-88
2021/01/18 10:09:09;;;;;;;1.38;1.20;;;4.10;99.90;;;;;;4195805;28;20074;-88
2021/01/18 10:11:10;;;;;;;0.40;0.40;;;4.10;99.90;;;;;;4195823;28;20044;-87
2021/01/18 10:13:17;;;;;;;1.13;0.70;;;4.10;99.90;;;;;;4197065;28;20059;-87
2021/01/18 10:15:26;;;;;;;0.30;0.20;;;4.10;99.90;;;;;;4194759;28;20037;-86
2021/01/18 10:17:30;;;;;;;0.65;0.65;;;4.20;99.90;;;;;;4196818;28;20051;-89
2021/01/18 10:19:35;;;;;;;1.25;0.82;;;4.20;99.90;;;;;;4184390;28;20098;-88
2021/01/18 10:21:37;;;;;;;0.35;0.35;;;4.20;99.90;;;;;;4182702;28;20049;-88
2021/01/18 10:23:39;;;;;;;1.08;0.30;;;4.10;99.90;;;;;;4198216;28;20562;-88
2021/01/18 10:25:41;;;;;;;0.10;0.10;;;4.20;99.90;;;;;;4198244;28;20512;-89
2021/01/18 10:27:49;;;;;;;0.73;0.50;;;4.20;99.90;;;;;;4197713;28;20074;-88
2021/01/18 10:30:07;;;;;;;0.30;0.30;;;4.20;99.90;;;;;;4197735;28;20484;-87
2021/01/18 10:32:08;;;;;;;0.30;0.10;;;4.20;99.90;;;;;;4198071;28;20044;-88
2021/01/18 10:34:21;;;;;;;0.50;0.32;;;4.20;99.90;;;;;;4199733;28;20060;-87
2021/01/18 10:36:32;;;;;;;0.55;0.55;;;4.20;99.90;;;;;;4199007;28;20079;-89
2021/01/18 10:38:37;;;;;;;0.55;0.50;;;4.30;99.90;;;;;;4180029;28;20065;-89
2021/01/18 10:40:38;;;;;;;5.85;0.73;;;4.30;99.90;;;;;;4198791;28;20052;-88
2021/01/18 10:42:52;;;;;;;0.57;0.38;;;4.40;99.90;;;;;;4199453;28;20049;-88
2021/01/18 10:44:55;;;;;;;0.40;0.22;;;4.40;99.90;;;;;;4198720;28;20053;-88
2021/01/18 10:46:56;;;;;;;1.25;0.60;;;4.40;99.90;;;;;;4198415;28;20127;-89
2021/01/18 10:48:58;;;;;;;1.30;1.25;;;4.40;99.90;;;;;;4195032;28;20056;-88
2021/01/18 10:51:02;;;;;;;0.47;0.38;;;4.40;99.90;;;;;;4196000;28;20048;-89
2021/01/18 10:53:07;;;;;;;0.45;0.40;;;4.50;99.90;;;;;;4182876;28;20041;-84
2021/01/18 10:55:12;;;;;;;0.70;0.70;;;4.50;99.90;;;;;;4183328;28;20053;-88
2021/01/18 10:57:22;;;;;;;0.60;0.50;;;4.50;99.90;;;;;;4182100;28;20048;-88
2021/01/18 10:59:31;;;;;;;0.17;0.17;;;4.60;99.90;;;;;;4198487;28;20063;-87